Strona główna
METAR-TAF:

METAR-TAF

Lotnisko :

Port lotniczy Den Helder-De Kooy

Den Helder, Holandia

Szerokość geograficzna: 52-55N, Długość geograficzna: 004-47E, wysokość: 0 m

Aktualna obserwacja pogody

Raport powstał 44 minut temu, godzina 21:25 UTC
Wiatr 6 kt od północny zachód, zmienny między zachód i północ
Temperatura 10°C
Wilgotność 82%
Ciśnienie 997 hPa
Widzialność 10 km lub więcej
Mało chmury na wysokości 1500 ft, Cumulonimbus.
Rozproszone chmury na wysokości 3500 ft
Przerywane chmury na wysokości 4000 ft

METAR: EHKD 042125Z AUTO 31006KT 280V350 9999 FEW015CB SCT035 BKN040 10/07 Q0997 REDZ BLU

czas: 00:09 (22:09 UTC)

Prognoza

Raport powstał 5 godziny i 44 minut temu, godzina 16:25 UTC
Prognoza ważna od 04 godzina 17 UTC do 05 godzina 05 UTC
Wiatr 9 kt od zachodnio-północny zachód
Widzialność 10 km lub więcej
Rozproszone chmury na wysokości 2000 ft

TAF: EHKD 041625Z 0417/0505 30009KT 9999 SCT020

Obserwacja i prognoza pogody dla ponad 4000 lotnisk (raport METAR i TAF).

Dostępne stacje oznaczono żółtymi i czerwonymi punktami na mapie.

Najedź kursorem aby zobaczyć nazwę stacji.

Kliknij aby zobaczyć obserwacje i prognozy pogody.

Aby zmienić mapę: kliknij na zielony przycisk z czarnym krzyżykiem, aby powiększyć; na zielony przycisk z myślnikiem, aby pomniejszyć; na zielone strzałki, aby przejść do map sąsiednich.


METAR-TAF: